Time;durP1;ratioP1;P1;durP2;ratioP2;P2;SDS_P1;SDS_P2;PMS_P1;PMS_P2;Temp;Humidity;BMP_temperature;BMP_pressure;BME280_temperature;BME280_humidity;BME280_pressure;Samples;Min_cycle;Max_cycle;Signal;HPM_P1;HPM_P2
2023/12/03 00:00:50;;;;;;;53.30;23.90;;;1.40;99.60;;;;;;4916484;29;20130;-78
2023/12/03 00:03:17;;;;;;;53.83;24.73;;;1.50;99.70;;;;;;4885209;29;20489;-78
2023/12/03 00:05:44;;;;;;;52.70;25.27;;;1.40;99.60;;;;;;4900570;29;20052;-78
2023/12/03 00:08:12;;;;;;;57.73;25.73;;;1.40;99.60;;;;;;4916145;29;20085;-78
2023/12/03 00:10:39;;;;;;;59.03;24.93;;;1.40;99.60;;;;;;4885219;29;20044;-78
2023/12/03 00:13:06;;;;;;;59.93;24.83;;;1.40;99.70;;;;;;4931808;29;20131;-78
2023/12/03 00:15:33;;;;;;;53.57;22.83;;;1.40;99.70;;;;;;4900238;29;20492;-78
2023/12/03 00:18:00;;;;;;;51.97;24.30;;;1.40;99.70;;;;;;4915784;29;20138;-78
2023/12/03 00:20:27;;;;;;;59.45;26.95;;;1.40;99.80;;;;;;4884452;29;20060;-78
2023/12/03 00:22:54;;;;;;;48.57;23.67;;;1.40;99.80;;;;;;4900714;29;20055;-78
2023/12/03 00:25:21;;;;;;;54.87;23.67;;;1.40;99.80;;;;;;4916153;29;20051;-77
2023/12/03 00:27:49;;;;;;;52.07;22.83;;;1.40;99.80;;;;;;4887695;29;20485;-77
2023/12/03 00:30:16;;;;;;;49.47;22.27;;;1.40;99.80;;;;;;4931436;29;20063;-77
2023/12/03 00:32:44;;;;;;;47.20;23.43;;;1.40;99.90;;;;;;4931421;29;20055;-79
2023/12/03 00:35:14;;;;;;;51.42;24.35;;;1.40;99.90;;;;;;4915854;29;20080;-79
2023/12/03 00:37:42;;;;;;;51.87;21.70;;;1.40;99.90;;;;;;4900541;29;20112;-79
2023/12/03 00:40:09;;;;;;;47.60;19.80;;;1.40;99.90;;;;;;4900150;29;20535;-79
2023/12/03 00:42:36;;;;;;;50.30;21.60;;;1.40;99.90;;;;;;4899970;29;20191;-79
2023/12/03 00:45:04;;;;;;;52.23;22.80;;;1.40;99.90;;;;;;4884845;29;20143;-79
2023/12/03 00:47:31;;;;;;;46.63;20.80;;;1.40;99.90;;;;;;4884573;29;20132;-79
2023/12/03 00:49:58;;;;;;;39.92;18.95;;;1.40;99.90;;;;;;4915839;29;20099;-79
2023/12/03 00:52:25;;;;;;;41.43;18.80;;;1.40;99.90;;;;;;4900035;29;20481;-79
2023/12/03 00:54:52;;;;;;;44.20;20.58;;;1.50;99.90;;;;;;4895094;29;20063;-79
2023/12/03 00:57:19;;;;;;;53.40;21.63;;;1.50;99.90;;;;;;4915670;29;20056;-79
2023/12/03 00:59:46;;;;;;;51.25;21.83;;;1.40;99.90;;;;;;4931564;29;20119;-79
2023/12/03 01:02:13;;;;;;;48.28;20.55;;;1.40;99.90;;;;;;4917630;29;20099;-79
2023/12/03 01:04:40;;;;;;;52.33;23.02;;;1.40;99.90;;;;;;4903762;29;20052;-79
2023/12/03 01:07:07;;;;;;;53.78;20.73;;;1.40;99.90;;;;;;4919415;29;20416;-79
2023/12/03 01:09:34;;;;;;;56.63;22.83;;;1.40;99.90;;;;;;4919355;29;20048;-79
2023/12/03 01:12:01;;;;;;;58.20;23.02;;;1.40;99.90;;;;;;4888167;29;20135;-78
2023/12/03 01:14:28;;;;;;;52.67;22.67;;;1.40;99.90;;;;;;4903785;29;20064;-79
2023/12/03 01:16:55;;;;;;;60.63;24.40;;;1.40;99.90;;;;;;4898438;29;20063;-79
2023/12/03 01:19:22;;;;;;;56.30;21.27;;;1.40;99.90;;;;;;4931990;29;20501;-79
2023/12/03 01:21:49;;;;;;;56.03;21.17;;;1.40;99.90;;;;;;4888405;29;20060;-79
2023/12/03 01:24:16;;;;;;;60.90;23.30;;;1.40;99.90;;;;;;4934967;29;20147;-79
2023/12/03 01:26:44;;;;;;;58.77;22.97;;;1.30;99.90;;;;;;4888316;29;20048;-79
2023/12/03 01:29:14;;;;;;;58.37;23.33;;;1.40;99.90;;;;;;4934582;29;20067;-79
2023/12/03 01:31:42;;;;;;;55.70;22.03;;;1.30;99.90;;;;;;4888180;29;20044;-79
2023/12/03 01:34:09;;;;;;;54.63;22.80;;;1.30;99.90;;;;;;4887602;29;20497;-79
2023/12/03 01:36:36;;;;;;;59.10;21.42;;;1.30;99.90;;;;;;4918989;29;20053;-79
2023/12/03 01:39:05;;;;;;;48.40;19.57;;;1.30;99.90;;;;;;4903353;29;20489;-79
2023/12/03 01:41:32;;;;;;;52.67;18.73;;;1.30;99.90;;;;;;4919262;29;20044;-79
2023/12/03 01:44:01;;;;;;;51.97;19.27;;;1.40;99.90;;;;;;4903491;29;20040;-79
2023/12/03 01:46:29;;;;;;;54.80;20.83;;;1.40;99.90;;;;;;4887421;29;20048;-79
2023/12/03 01:48:56;;;;;;;48.43;16.83;;;1.40;99.90;;;;;;4918732;29;20055;-79
2023/12/03 01:51:24;;;;;;;47.30;17.27;;;1.40;99.90;;;;;;4934174;29;20044;-79
2023/12/03 01:53:51;;;;;;;51.27;17.50;;;1.40;99.90;;;;;;4934267;29;20048;-78
2023/12/03 01:56:18;;;;;;;47.67;18.97;;;1.40;99.90;;;;;;4918831;29;20054;-79
2023/12/03 01:58:46;;;;;;;50.50;19.50;;;1.50;99.90;;;;;;4934431;29;20059;-78
2023/12/03 02:01:13;;;;;;;59.07;19.10;;;1.40;99.90;;;;;;4918172;29;20143;-79
2023/12/03 02:03:40;;;;;;;58.13;19.93;;;1.40;99.90;;;;;;4918259;29;20076;-79
2023/12/03 02:06:09;;;;;;;57.37;20.87;;;1.40;99.90;;;;;;4887225;29;20433;-78
2023/12/03 02:08:37;;;;;;;58.47;20.13;;;1.40;99.90;;;;;;4902931;29;20130;-79
2023/12/03 02:11:06;;;;;;;51.90;19.63;;;1.40;99.90;;;;;;4886995;29;20059;-79
2023/12/03 02:13:36;;;;;;;55.17;19.13;;;1.50;99.90;;;;;;4901929;29;20441;-78
2023/12/03 02:16:04;;;;;;;55.07;20.40;;;1.50;99.90;;;;;;4934132;29;20378;-79
2023/12/03 02:18:35;;;;;;;51.80;16.67;;;1.50;99.90;;;;;;4918394;29;20036;-78
2023/12/03 02:21:03;;;;;;;44.17;16.53;;;1.50;99.90;;;;;;4918178;29;20052;-79
2023/12/03 02:23:30;;;;;;;51.03;18.10;;;1.50;99.90;;;;;;4906311;29;20063;-78
2023/12/03 02:25:58;;;;;;;41.08;14.60;;;1.60;99.90;;;;;;4903633;29;20055;-79
2023/12/03 02:28:25;;;;;;;35.95;14.90;;;1.50;99.90;;;;;;4918068;29;20048;-78
2023/12/03 02:30:52;;;;;;;38.23;12.90;;;1.60;99.90;;;;;;4917963;29;20412;-79
2023/12/03 02:33:19;;;;;;;42.00;15.87;;;1.60;99.90;;;;;;4933591;29;20075;-78
2023/12/03 02:35:47;;;;;;;36.47;13.77;;;1.60;99.90;;;;;;4886756;29;20052;-79
2023/12/03 02:38:14;;;;;;;44.47;15.47;;;1.70;99.90;;;;;;4886808;29;20055;-79
2023/12/03 02:40:41;;;;;;;40.63;14.88;;;1.70;99.90;;;;;;4917725;29;20100;-79
2023/12/03 02:43:08;;;;;;;43.27;16.63;;;1.70;99.90;;;;;;4933630;29;20036;-79
2023/12/03 02:45:35;;;;;;;39.53;13.18;;;1.70;99.90;;;;;;4902863;29;20091;-78
2023/12/03 02:48:02;;;;;;;39.05;14.02;;;1.70;99.90;;;;;;4901647;29;20048;-79
2023/12/03 02:50:30;;;;;;;43.05;14.30;;;1.80;99.90;;;;;;4917662;29;20131;-78
2023/12/03 02:52:57;;;;;;;44.33;16.17;;;1.80;99.90;;;;;;4886460;29;20059;-79
2023/12/03 02:55:24;;;;;;;38.93;13.23;;;1.80;99.90;;;;;;4917561;29;20099;-79
2023/12/03 02:57:51;;;;;;;34.95;11.63;;;1.80;99.90;;;;;;4917446;29;20072;-78
2023/12/03 03:00:19;;;;;;;29.93;11.10;;;1.80;99.90;;;;;;4917378;29;20071;-79
2023/12/03 03:02:46;;;;;;;34.87;11.70;;;1.90;99.90;;;;;;4917681;29;20056;-79
2023/12/03 03:05:13;;;;;;;36.30;12.50;;;1.90;99.90;;;;;;4917182;29;20095;-79
2023/12/03 03:07:41;;;;;;;34.50;13.82;;;1.90;99.90;;;;;;4921529;29;20103;-79
2023/12/03 03:10:08;;;;;;;35.53;12.37;;;1.90;99.90;;;;;;4917647;29;20087;-78
2023/12/03 03:12:35;;;;;;;38.17;13.68;;;1.90;99.90;;;;;;4917291;29;20071;-79
2023/12/03 03:15:02;;;;;;;32.77;13.33;;;1.90;99.90;;;;;;4925259;29;20062;-79
2023/12/03 03:17:29;;;;;;;35.60;14.03;;;2.00;99.90;;;;;;4932747;29;20052;-78
2023/12/03 03:19:56;;;;;;;32.50;11.70;;;2.00;99.90;;;;;;4935792;29;20056;-79
2023/12/03 03:22:23;;;;;;;36.67;13.73;;;2.00;99.90;;;;;;4889177;29;20059;-78
2023/12/03 03:24:52;;;;;;;38.28;14.02;;;2.10;99.90;;;;;;4925598;29;20131;-79
2023/12/03 03:27:19;;;;;;;35.78;13.45;;;2.00;99.90;;;;;;4935768;29;20043;-79
2023/12/03 03:29:46;;;;;;;37.95;14.43;;;2.10;99.90;;;;;;4892420;29;20051;-79
2023/12/03 03:32:13;;;;;;;37.80;14.98;;;2.10;99.90;;;;;;4920319;29;20055;-79
2023/12/03 03:34:41;;;;;;;34.17;14.10;;;2.10;99.90;;;;;;4898770;29;20047;-79
2023/12/03 03:37:08;;;;;;;41.17;17.10;;;2.10;99.90;;;;;;4919703;29;20040;-79
2023/12/03 03:39:35;;;;;;;48.20;17.90;;;2.10;99.90;;;;;;4888402;29;20048;-79
2023/12/03 03:42:03;;;;;;;45.27;17.93;;;2.10;99.90;;;;;;4919644;29;20036;-78
2023/12/03 03:44:30;;;;;;;45.63;16.87;;;2.20;99.90;;;;;;4919708;29;20047;-79
2023/12/03 03:46:58;;;;;;;53.83;22.60;;;2.10;99.90;;;;;;4919419;29;20059;-79
2023/12/03 03:49:25;;;;;;;38.27;17.80;;;2.20;99.90;;;;;;4903954;29;20051;-78
2023/12/03 03:51:52;;;;;;;44.13;19.03;;;2.20;99.90;;;;;;4891100;29;20063;-78
2023/12/03 03:54:19;;;;;;;38.13;17.53;;;2.20;99.90;;;;;;4919489;29;20047;-79
2023/12/03 03:56:49;;;;;;;41.17;18.93;;;2.20;99.90;;;;;;4919310;29;20052;-79
2023/12/03 03:59:16;;;;;;;38.63;16.47;;;2.20;99.90;;;;;;4919812;29;20048;-78
2023/12/03 04:01:44;;;;;;;41.07;16.30;;;2.20;99.90;;;;;;4920413;29;20075;-78
2023/12/03 04:04:12;;;;;;;46.17;19.97;;;2.20;99.90;;;;;;4935069;29;20052;-78
2023/12/03 04:06:44;;;;;;;46.37;21.20;;;2.30;99.90;;;;;;4929817;29;20099;-78
2023/12/03 04:09:13;;;;;;;45.40;19.97;;;2.30;99.90;;;;;;4903788;29;20082;-78
2023/12/03 04:11:44;;;;;;;43.10;19.17;;;2.20;99.90;;;;;;4924492;29;20102;-79
2023/12/03 04:14:18;;;;;;;44.07;20.60;;;2.30;99.90;;;;;;4933216;29;20050;-78
2023/12/03 04:16:45;;;;;;;48.13;21.87;;;2.30;99.90;;;;;;4941935;29;20052;-79
2023/12/03 04:19:12;;;;;;;39.70;19.93;;;2.30;99.90;;;;;;4902869;29;20066;-79
2023/12/03 04:21:39;;;;;;;38.47;17.33;;;2.30;99.90;;;;;;4927435;29;20551;-78
2023/12/03 04:24:07;;;;;;;37.58;18.08;;;2.30;99.90;;;;;;4934847;29;20119;-79
2023/12/03 04:26:34;;;;;;;34.10;16.92;;;2.30;99.90;;;;;;4919027;29;20048;-79
2023/12/03 04:29:01;;;;;;;35.38;18.83;;;2.30;99.90;;;;;;4938601;29;20400;-79
2023/12/03 04:31:28;;;;;;;34.87;16.40;;;2.30;99.90;;;;;;4935889;29;20040;-78
2023/12/03 04:33:56;;;;;;;25.35;12.98;;;2.30;99.90;;;;;;4929423;29;20088;-78
2023/12/03 04:36:24;;;;;;;24.90;11.97;;;2.40;99.90;;;;;;4902831;29;20098;-79
2023/12/03 04:38:52;;;;;;;23.53;12.50;;;2.40;99.90;;;;;;4925955;29;20164;-79
2023/12/03 04:41:19;;;;;;;23.88;11.63;;;2.40;99.90;;;;;;4907119;29;20039;-79
2023/12/03 04:43:47;;;;;;;25.98;12.40;;;2.40;99.90;;;;;;4918867;29;20052;-78
2023/12/03 04:46:14;;;;;;;25.15;11.25;;;2.40;99.90;;;;;;4912692;29;20055;-79
2023/12/03 04:48:43;;;;;;;20.90;10.82;;;2.40;99.90;;;;;;4906062;29;20456;-78
2023/12/03 04:51:13;;;;;;;20.85;10.38;;;2.40;99.90;;;;;;4904863;29;20051;-78
2023/12/03 04:53:41;;;;;;;24.67;11.88;;;2.40;99.90;;;;;;4890228;29;20047;-78
2023/12/03 04:56:09;;;;;;;21.83;11.05;;;2.40;99.90;;;;;;4926105;29;20066;-78
2023/12/03 04:58:36;;;;;;;26.92;13.25;;;2.40;99.90;;;;;;4932155;29;20050;-79
2023/12/03 05:01:03;;;;;;;22.52;10.98;;;2.40;99.90;;;;;;4934596;29;20071;-78
2023/12/03 05:03:31;;;;;;;20.63;11.50;;;2.40;99.90;;;;;;4918850;29;20524;-78
2023/12/03 05:05:58;;;;;;;24.65;12.15;;;2.30;99.90;;;;;;4892196;29;20062;-79
2023/12/03 05:08:25;;;;;;;32.13;15.20;;;2.40;99.90;;;;;;4924450;29;20396;-78
2023/12/03 05:10:52;;;;;;;33.40;17.48;;;2.40;99.90;;;;;;4900307;29;20477;-78
2023/12/03 05:13:19;;;;;;;38.33;19.00;;;2.30;99.90;;;;;;4935470;29;20480;-78
2023/12/03 05:15:46;;;;;;;38.42;19.80;;;2.30;99.90;;;;;;4918511;29;20059;-78
2023/12/03 05:18:13;;;;;;;38.03;20.23;;;2.30;99.90;;;;;;4927412;29;20083;-79
2023/12/03 05:20:41;;;;;;;35.70;17.27;;;2.30;99.90;;;;;;4934352;29;20056;-79
2023/12/03 05:23:08;;;;;;;34.60;17.55;;;2.30;99.90;;;;;;4897478;29;20111;-79
2023/12/03 05:25:35;;;;;;;37.60;19.30;;;2.30;99.90;;;;;;4902534;29;20095;-79
2023/12/03 05:28:04;;;;;;;36.08;18.40;;;2.20;99.90;;;;;;4907179;29;20445;-79
2023/12/03 05:30:31;;;;;;;34.42;18.38;;;2.20;99.90;;;;;;4923682;29;20051;-79
2023/12/03 05:32:58;;;;;;;36.53;18.10;;;2.20;99.90;;;;;;4947161;29;20047;-79
2023/12/03 05:35:26;;;;;;;34.03;17.38;;;2.20;99.90;;;;;;4887321;29;20056;-79
2023/12/03 05:37:53;;;;;;;30.53;15.47;;;2.10;99.90;;;;;;4934224;29;20048;-78
2023/12/03 05:40:20;;;;;;;27.70;13.17;;;2.10;99.90;;;;;;4918469;29;20052;-79
2023/12/03 05:42:48;;;;;;;24.27;13.68;;;2.00;99.90;;;;;;4943520;29;20131;-78
2023/12/03 05:45:15;;;;;;;23.50;14.18;;;2.00;99.90;;;;;;4923327;29;20467;-79
2023/12/03 05:47:42;;;;;;;25.33;12.63;;;1.90;99.90;;;;;;4919710;29;20054;-78
2023/12/03 05:50:09;;;;;;;29.33;12.53;;;1.80;99.90;;;;;;4922083;29;20139;-78
2023/12/03 05:52:36;;;;;;;23.90;11.93;;;1.70;99.90;;;;;;4928332;29;20040;-79
2023/12/03 05:55:04;;;;;;;21.23;10.95;;;1.60;99.90;;;;;;4949862;29;20052;-79
2023/12/03 05:57:31;;;;;;;18.42;8.27;;;1.60;99.90;;;;;;4895615;29;20122;-78
2023/12/03 05:59:58;;;;;;;17.75;9.48;;;1.50;99.90;;;;;;4926623;29;20052;-78
2023/12/03 06:02:25;;;;;;;13.97;7.23;;;1.40;99.90;;;;;;4893940;29;20050;-79
2023/12/03 06:04:52;;;;;;;15.23;7.73;;;1.40;99.90;;;;;;4943898;29;20047;-78
2023/12/03 06:07:19;;;;;;;16.80;7.40;;;1.40;99.90;;;;;;4890668;29;20048;-79
2023/12/03 06:09:46;;;;;;;17.13;8.27;;;1.30;99.90;;;;;;4921710;29;20048;-78
2023/12/03 06:12:13;;;;;;;18.33;10.03;;;1.30;99.90;;;;;;4925033;29;20043;-79
2023/12/03 06:14:41;;;;;;;19.67;9.05;;;1.30;99.90;;;;;;4912084;29;20548;-79
2023/12/03 06:17:08;;;;;;;14.03;8.17;;;1.30;99.90;;;;;;4921366;29;20048;-79
2023/12/03 06:19:35;;;;;;;18.83;9.50;;;1.30;99.90;;;;;;4894615;29;20464;-79
2023/12/03 06:22:02;;;;;;;21.83;10.18;;;1.30;99.90;;;;;;4905404;29;20511;-78
2023/12/03 06:24:29;;;;;;;15.57;7.68;;;1.30;99.90;;;;;;4918199;29;20472;-78
2023/12/03 06:26:56;;;;;;;16.87;8.07;;;1.40;99.90;;;;;;4928113;29;20074;-79
2023/12/03 06:29:23;;;;;;;16.63;9.30;;;1.30;99.90;;;;;;4936817;29;20103;-79
2023/12/03 06:31:51;;;;;;;24.35;11.80;;;1.30;99.90;;;;;;4936996;29;20147;-78
2023/12/03 06:34:18;;;;;;;23.40;11.63;;;1.30;99.90;;;;;;4908183;29;20048;-79
2023/12/03 06:36:46;;;;;;;27.27;12.97;;;1.30;99.90;;;;;;4895858;29;20051;-81
2023/12/03 06:39:13;;;;;;;24.67;12.13;;;1.30;99.90;;;;;;4920843;29;20047;-81
2023/12/03 06:41:40;;;;;;;23.13;10.30;;;1.30;99.90;;;;;;4905223;29;20143;-78
2023/12/03 06:44:07;;;;;;;22.97;11.37;;;1.30;99.90;;;;;;4927526;29;20051;-78
2023/12/03 06:46:41;;;;;;;23.60;11.40;;;1.30;99.90;;;;;;4908507;29;20128;-79
2023/12/03 06:49:09;;;;;;;23.83;11.80;;;1.30;99.90;;;;;;4930713;29;20076;-77
2023/12/03 06:51:37;;;;;;;22.70;11.10;;;1.30;99.90;;;;;;4905187;29;20050;-78
2023/12/03 06:54:04;;;;;;;25.25;13.07;;;1.30;99.90;;;;;;4936602;29;20430;-77
2023/12/03 06:56:31;;;;;;;21.37;10.77;;;1.30;99.90;;;;;;4920700;29;20048;-77
2023/12/03 06:58:58;;;;;;;21.60;10.13;;;1.30;99.90;;;;;;4923022;29;20103;-78
2023/12/03 07:01:25;;;;;;;18.47;9.20;;;1.30;99.90;;;;;;4900612;29;20058;-78
2023/12/03 07:03:52;;;;;;;20.90;9.57;;;1.30;99.90;;;;;;4920480;29;20143;-78
2023/12/03 07:06:19;;;;;;;19.17;9.60;;;1.20;99.90;;;;;;4936423;29;20095;-78
2023/12/03 07:08:47;;;;;;;23.47;10.07;;;1.10;99.90;;;;;;4938628;29;20040;-78
2023/12/03 07:11:14;;;;;;;20.92;8.60;;;1.00;99.90;;;;;;4936345;29;20105;-77
2023/12/03 07:13:42;;;;;;;16.83;7.73;;;1.00;99.90;;;;;;4909255;29;20126;-78
2023/12/03 07:16:10;;;;;;;15.73;7.37;;;0.90;99.90;;;;;;4920766;29;20070;-78
2023/12/03 07:18:42;;;;;;;17.60;8.40;;;0.80;99.90;;;;;;4936253;29;20048;-77
2023/12/03 07:21:12;;;;;;;;;;;0.70;99.90;;;;;;4948160;29;20096;-78
2023/12/03 07:23:39;;;;;;;22.93;10.80;;;0.70;99.90;;;;;;4939387;29;19926;-78
2023/12/03 07:26:10;;;;;;;20.57;9.37;;;0.60;99.90;;;;;;4876011;29;20052;-79
2023/12/03 07:28:37;;;;;;;23.40;10.87;;;0.60;99.90;;;;;;4922178;29;20039;-79
2023/12/03 07:31:04;;;;;;;24.87;11.47;;;0.60;99.90;;;;;;4919866;29;20044;-78
2023/12/03 07:33:32;;;;;;;27.87;12.97;;;0.50;99.90;;;;;;4920295;29;20051;-77
2023/12/03 07:35:59;;;;;;;24.50;11.90;;;0.50;99.90;;;;;;4920590;29;20059;-78
2023/12/03 07:38:28;;;;;;;27.40;12.93;;;0.50;99.90;;;;;;4935780;29;20052;-78
2023/12/03 07:40:56;;;;;;;26.13;11.03;;;0.50;99.90;;;;;;4923999;29;20404;-78
2023/12/03 07:43:23;;;;;;;25.13;10.97;;;0.40;99.90;;;;;;4901916;29;20051;-78
2023/12/03 07:45:50;;;;;;;18.63;9.32;;;0.40;99.90;;;;;;4888712;29;20048;-78
2023/12/03 07:48:17;;;;;;;18.30;9.40;;;0.40;99.90;;;;;;4904357;29;20095;-77
2023/12/03 07:50:44;;;;;;;18.40;8.83;;;0.30;99.90;;;;;;4920082;29;20051;-77
2023/12/03 07:53:12;;;;;;;20.80;9.00;;;0.30;99.90;;;;;;4931322;29;20110;-78
2023/12/03 07:55:39;;;;;;;17.10;8.50;;;0.30;99.90;;;;;;4924028;29;20056;-78
2023/12/03 07:58:06;;;;;;;19.03;7.50;;;0.30;99.90;;;;;;4936547;29;20531;-78
2023/12/03 08:00:34;;;;;;;14.63;6.60;;;0.30;99.90;;;;;;4922174;29;20048;-77
2023/12/03 08:03:02;;;;;;;14.70;5.77;;;0.30;99.90;;;;;;4920096;29;20138;-77
2023/12/03 08:05:30;;;;;;;16.87;6.13;;;0.30;99.90;;;;;;4904809;29;20139;-77
2023/12/03 08:07:58;;;;;;;13.00;5.67;;;0.30;99.90;;;;;;4919570;29;20106;-78
2023/12/03 08:10:26;;;;;;;14.87;5.60;;;0.30;99.90;;;;;;4919344;29;20086;-78
2023/12/03 08:12:53;;;;;;;12.97;5.37;;;0.30;99.90;;;;;;4924783;29;20041;-78
2023/12/03 08:15:26;;;;;;;9.50;4.83;;;0.30;99.90;;;;;;4930666;29;20042;-78
2023/12/03 08:17:53;;;;;;;12.80;5.40;;;0.30;99.90;;;;;;4920061;29;20051;-78
2023/12/03 08:20:20;;;;;;;16.37;6.57;;;0.30;99.90;;;;;;4919372;29;20507;-78
2023/12/03 08:22:47;;;;;;;15.47;6.30;;;0.30;99.90;;;;;;4919487;29;20476;-78
2023/12/03 08:25:14;;;;;;;15.43;6.43;;;0.20;99.90;;;;;;4919397;29;20048;-78
2023/12/03 08:27:42;;;;;;;16.80;7.33;;;0.20;99.90;;;;;;4937364;29;20134;-78
2023/12/03 08:30:10;;;;;;;17.23;6.63;;;0.20;99.90;;;;;;4927621;29;20047;-78
2023/12/03 08:32:37;;;;;;;14.27;5.57;;;0.20;99.90;;;;;;4919103;29;20052;-77
2023/12/03 08:35:05;;;;;;;16.37;6.20;;;0.20;99.90;;;;;;4918881;29;20040;-78
2023/12/03 08:37:32;;;;;;;14.97;5.37;;;0.30;99.90;;;;;;4931125;29;20051;-78
2023/12/03 08:39:59;;;;;;;10.47;4.57;;;0.30;99.90;;;;;;4930684;29;20051;-78
2023/12/03 08:42:26;;;;;;;14.80;6.10;;;0.30;99.90;;;;;;4888075;29;20048;-79
2023/12/03 08:44:54;;;;;;;14.70;6.80;;;0.30;99.90;;;;;;4904039;29;20040;-78
2023/12/03 08:47:21;;;;;;;13.37;6.00;;;0.30;99.90;;;;;;4897970;29;20043;-78
2023/12/03 08:49:48;;;;;;;13.53;5.93;;;0.30;99.90;;;;;;4934371;29;20122;-79
2023/12/03 08:52:15;;;;;;;15.47;6.67;;;0.30;99.90;;;;;;4884733;29;20130;-81
2023/12/03 08:54:42;;;;;;;13.27;6.10;;;0.30;99.90;;;;;;4918702;29;20052;-81
2023/12/03 08:57:09;;;;;;;13.37;5.47;;;0.40;99.90;;;;;;4918640;29;20059;-81
2023/12/03 08:59:37;;;;;;;12.27;6.90;;;0.40;99.90;;;;;;4918992;29;20047;-81
2023/12/03 09:02:05;;;;;;;18.60;8.67;;;0.40;99.90;;;;;;4935621;29;20058;-81
2023/12/03 09:04:32;;;;;;;20.20;8.07;;;0.50;99.90;;;;;;4919172;29;20047;-81
2023/12/03 09:07:00;;;;;;;19.43;8.03;;;0.50;99.90;;;;;;4931014;29;20051;-81
2023/12/03 09:09:27;;;;;;;19.07;8.17;;;0.60;99.90;;;;;;4923696;29;20047;-81
2023/12/03 09:11:54;;;;;;;21.50;9.27;;;0.60;99.90;;;;;;4887190;29;20043;-81
2023/12/03 09:14:22;;;;;;;24.23;10.27;;;0.60;99.90;;;;;;4921996;29;20062;-81
2023/12/03 09:16:49;;;;;;;23.47;10.77;;;0.70;99.90;;;;;;4934483;28;20048;-80
2023/12/03 09:19:16;;;;;;;25.77;11.10;;;0.70;99.90;;;;;;4900941;29;20525;-81
2023/12/03 09:21:43;;;;;;;27.40;12.00;;;0.80;99.90;;;;;;4920833;29;20060;-80
2023/12/03 09:24:10;;;;;;;27.97;12.13;;;0.80;99.90;;;;;;4922578;29;20103;-81
2023/12/03 09:26:37;;;;;;;28.20;12.17;;;0.80;99.90;;;;;;4937906;29;20555;-84
2023/12/03 09:29:05;;;;;;;25.87;12.23;;;0.90;99.90;;;;;;4937982;29;20058;-81
2023/12/03 09:31:32;;;;;;;23.73;9.67;;;0.90;99.90;;;;;;4901829;29;20050;-81
2023/12/03 09:33:59;;;;;;;17.90;7.90;;;0.90;99.90;;;;;;4917233;29;20043;-82
2023/12/03 09:36:26;;;;;;;26.93;11.47;;;1.00;99.90;;;;;;4918606;29;20108;-81
2023/12/03 09:38:53;;;;;;;19.53;9.37;;;1.00;99.90;;;;;;4937912;29;20411;-82
2023/12/03 09:41:23;;;;;;;25.27;10.67;;;1.00;99.90;;;;;;4910487;29;20077;-82
2023/12/03 09:43:59;;;;;;;25.00;12.20;;;1.00;99.90;;;;;;4906461;29;20055;-82
2023/12/03 09:46:32;;;;;;;32.83;12.40;;;1.00;99.90;;;;;;4937473;29;20496;-83
2023/12/03 09:49:08;;;;;;;32.22;13.75;;;1.10;99.90;;;;;;4937860;29;20048;-82
2023/12/03 09:51:40;;;;;;;35.67;14.10;;;1.20;99.90;;;;;;4937490;29;20050;-82
2023/12/03 09:54:10;;;;;;;30.42;12.07;;;1.20;99.90;;;;;;4944796;29;20067;-82
2023/12/03 09:56:42;;;;;;;27.50;11.73;;;1.20;99.90;;;;;;4927013;29;20066;-82
2023/12/03 09:59:10;;;;;;;26.27;12.25;;;1.20;99.90;;;;;;4932999;29;20059;-83
2023/12/03 10:01:38;;;;;;;23.93;9.87;;;1.30;99.90;;;;;;4937642;29;20477;-82
2023/12/03 10:04:06;;;;;;;21.80;10.37;;;1.30;99.90;;;;;;4934546;29;20141;-83
2023/12/03 10:06:42;;;;;;;26.13;11.83;;;1.30;99.90;;;;;;4946725;29;20047;-83
2023/12/03 10:09:11;;;;;;;22.50;10.53;;;1.40;99.90;;;;;;4936691;29;20055;-82
2023/12/03 10:11:39;;;;;;;24.97;11.23;;;1.40;99.90;;;;;;4946528;29;20050;-82
2023/12/03 10:14:12;;;;;;;26.70;10.15;;;1.40;99.90;;;;;;4937335;28;20055;-82
2023/12/03 10:16:40;;;;;;;22.40;9.60;;;1.50;99.90;;;;;;4921617;29;20121;-82
2023/12/03 10:19:08;;;;;;;18.50;8.17;;;1.50;99.90;;;;;;4906114;29;20062;-82
2023/12/03 10:21:35;;;;;;;21.38;8.85;;;1.50;99.90;;;;;;4914747;29;20067;-81
2023/12/03 10:24:04;;;;;;;20.38;7.95;;;1.60;99.90;;;;;;4938333;29;20079;-82
2023/12/03 10:26:31;;;;;;;16.00;7.60;;;1.60;99.90;;;;;;4927163;29;20040;-83
2023/12/03 10:28:59;;;;;;;18.13;7.90;;;1.70;99.90;;;;;;4921470;29;20152;-81
2023/12/03 10:31:30;;;;;;;19.70;9.13;;;1.70;99.90;;;;;;4937114;29;20040;-81
2023/12/03 10:33:57;;;;;;;20.65;9.63;;;1.70;99.90;;;;;;4892347;29;20063;-83
2023/12/03 10:36:29;;;;;;;20.95;10.25;;;1.70;99.90;;;;;;4921040;29;20103;-88
2023/12/03 10:38:57;;;;;;;17.77;8.18;;;1.80;99.90;;;;;;4937887;29;20048;-88
2023/12/03 10:41:24;;;;;;;18.45;7.47;;;1.80;99.90;;;;;;4906962;29;20085;-88
2023/12/03 10:43:51;;;;;;;19.48;9.27;;;1.80;99.90;;;;;;4902655;29;20052;-88
2023/12/03 10:46:22;;;;;;;21.63;9.60;;;1.80;99.90;;;;;;4938069;29;20052;-86
2023/12/03 10:48:52;;;;;;;21.33;10.07;;;1.80;99.80;;;;;;4950457;29;20054;-91
2023/12/03 10:51:19;;;;;;;16.75;8.13;;;1.80;99.70;;;;;;4922139;29;20039;-90
2023/12/03 10:53:47;;;;;;;18.75;8.82;;;1.90;99.70;;;;;;4890680;29;20051;-88
2023/12/03 10:56:16;;;;;;;17.53;7.80;;;1.90;99.70;;;;;;4937269;29;20134;-88
2023/12/03 10:58:44;;;;;;;19.33;8.90;;;1.90;99.70;;;;;;4920479;29;20051;-90
2023/12/03 11:01:19;;;;;;;22.60;10.77;;;1.90;99.60;;;;;;4922935;29;20059;-87
2023/12/03 11:03:57;;;;;;;19.77;9.33;;;1.90;99.40;;;;;;4937716;29;20495;-86
2023/12/03 11:06:25;;;;;;;20.17;9.03;;;1.90;99.40;;;;;;4936958;29;20138;-92
2023/12/03 11:08:55;;;;;;;22.83;10.70;;;1.90;99.40;;;;;;4904330;29;20043;-89
2023/12/03 11:11:22;;;;;;;23.40;10.37;;;1.90;99.30;;;;;;4946720;29;20048;-88
2023/12/03 11:13:54;;;;;;;20.48;9.68;;;1.90;99.30;;;;;;4937403;29;20444;-86
2023/12/03 11:16:25;;;;;;;17.27;8.90;;;1.90;99.10;;;;;;4943561;29;20062;-92
2023/12/03 11:18:58;;;;;;;21.70;9.07;;;2.00;99.20;;;;;;4941270;29;20044;-88
2023/12/03 11:21:58;;;;;;;17.08;7.70;;;2.00;99.10;;;;;;4933744;29;20068;-89
2023/12/03 11:25:03;;;;;;;20.40;8.90;;;2.10;99.00;;;;;;4917840;29;20519;-88
2023/12/03 11:27:31;;;;;;;15.00;7.77;;;2.10;98.90;;;;;;4933698;29;20143;-90
2023/12/03 11:30:04;;;;;;;18.00;7.50;;;2.10;98.80;;;;;;4902575;29;20040;-88
2023/12/03 11:32:31;;;;;;;15.47;7.20;;;2.20;98.80;;;;;;4903838;29;20048;-89
2023/12/03 11:35:13;;;;;;;15.17;6.93;;;2.20;98.80;;;;;;4889920;29;20131;-91
2023/12/03 11:37:44;;;;;;;15.43;7.47;;;2.30;98.80;;;;;;4918485;29;20048;-90
2023/12/03 11:40:15;;;;;;;16.30;8.00;;;2.30;98.70;;;;;;4918783;29;20056;-89
2023/12/03 11:42:49;;;;;;;16.47;6.90;;;2.40;98.50;;;;;;4934211;29;20062;-91
2023/12/03 11:45:30;;;;;;;13.40;6.03;;;2.50;98.40;;;;;;4934514;29;20080;-92
2023/12/03 11:48:05;;;;;;;13.87;5.60;;;2.60;98.40;;;;;;4934219;29;20044;-90
2023/12/03 11:50:39;;;;;;;14.30;6.50;;;2.60;98.40;;;;;;4918487;29;20048;-91
2023/12/03 11:53:15;;;;;;;12.65;6.22;;;2.70;98.20;;;;;;4934345;29;20119;-92
2023/12/03 11:55:51;;;;;;;15.48;6.20;;;2.70;98.10;;;;;;4934297;29;20048;-91
2023/12/03 11:58:22;;;;;;;13.73;5.83;;;2.80;98.10;;;;;;4918086;29;20059;-90
2023/12/03 12:00:52;;;;;;;13.82;6.55;;;2.90;98.10;;;;;;4918264;29;20071;-90
2023/12/03 12:03:27;;;;;;;11.65;4.57;;;2.90;98.10;;;;;;4887045;29;20048;-93
2023/12/03 12:05:58;;;;;;;10.73;5.05;;;2.90;98.10;;;;;;4933855;29;20048;-90
2023/12/03 12:08:26;;;;;;;13.07;5.93;;;2.90;98.10;;;;;;4886581;29;20122;-86
2023/12/03 12:10:54;;;;;;;12.43;5.75;;;2.80;98.00;;;;;;4932435;29;20051;-90
2023/12/03 12:13:25;;;;;;;15.05;7.43;;;2.80;97.90;;;;;;4933945;29;20496;-87
2023/12/03 12:15:56;;;;;;;13.18;5.63;;;2.90;97.80;;;;;;4933770;29;20071;-91
2023/12/03 12:18:24;;;;;;;13.90;6.22;;;2.90;97.80;;;;;;4933528;29;20056;-90
2023/12/03 12:20:51;;;;;;;13.25;5.97;;;2.90;97.70;;;;;;4887707;29;20056;-89
2023/12/03 12:23:18;;;;;;;14.60;6.75;;;2.90;97.70;;;;;;4896354;29;20131;-90
2023/12/03 12:25:46;;;;;;;15.23;7.13;;;3.00;97.50;;;;;;4919341;29;20055;-88
2023/12/03 12:28:13;;;;;;;16.25;6.35;;;3.00;97.40;;;;;;4933170;29;20048;-90
2023/12/03 12:30:42;;;;;;;14.07;6.13;;;3.00;97.40;;;;;;4917336;29;20125;-88
2023/12/03 12:33:10;;;;;;;14.15;6.63;;;3.10;97.40;;;;;;4893032;29;20097;-89
2023/12/03 12:35:42;;;;;;;11.48;5.70;;;3.10;97.40;;;;;;4917554;29;20072;-89
2023/12/03 12:38:18;;;;;;;12.18;5.32;;;3.20;97.40;;;;;;4920353;29;20066;-91
2023/12/03 12:40:55;;;;;;;11.23;5.20;;;3.30;97.60;;;;;;4922835;29;20120;-90
2023/12/03 12:43:22;;;;;;;12.35;6.03;;;3.40;97.10;;;;;;4929980;29;20592;-87
2023/12/03 12:45:50;;;;;;;11.63;5.53;;;3.40;97.10;;;;;;4916944;29;20056;-88